Time;durP1;ratioP1;P1;durP2;ratioP2;P2;SDS_P1;SDS_P2;PMS_P1;PMS_P2;Temp;Humidity;BMP_temperature;BMP_pressure;BME280_temperature;BME280_humidity;BME280_pressure;Samples;Min_cycle;Max_cycle;Signal;HPM_P1;HPM_P2
2021/06/11 00:01:58;;;;;;;13.97;11.40;;;20.30;1.00;;;;;;4966789;28;20209;-77
2021/06/11 00:04:25;;;;;;;17.23;12.27;;;20.10;1.00;;;;;;4999559;28;20213;-77
2021/06/11 00:06:52;;;;;;;15.63;12.50;;;19.80;1.00;;;;;;4979127;28;20300;-77
2021/06/11 00:09:19;;;;;;;17.10;12.43;;;19.80;1.00;;;;;;4975244;28;20224;-77
2021/06/11 00:11:48;;;;;;;14.27;11.20;;;19.80;1.00;;;;;;4978955;28;20271;-77
2021/06/11 00:14:16;;;;;;;15.80;12.30;;;19.70;22.20;;;;;;4994292;28;20248;-77
2021/06/11 00:16:43;;;;;;;14.20;10.37;;;19.80;27.20;;;;;;4991044;28;20527;-77
2021/06/11 00:19:10;;;;;;;15.20;12.77;;;19.80;91.80;;;;;;5010346;28;20713;-76
2021/06/11 00:21:37;;;;;;;13.23;10.50;;;19.50;99.90;;;;;;4975156;28;20210;-77
2021/06/11 00:24:05;;;;;;;14.47;11.37;;;19.40;99.90;;;;;;4976558;28;20664;-77
2021/06/11 00:26:32;;;;;;;14.20;9.93;;;19.40;99.90;;;;;;4984501;28;123124;-77
2021/06/11 00:29:00;;;;;;;14.37;9.87;;;19.20;99.90;;;;;;4976643;28;20205;-77
2021/06/11 00:31:27;;;;;;;13.60;9.30;;;19.30;99.90;;;;;;4990935;28;20355;-77
2021/06/11 00:33:54;;;;;;;12.30;9.17;;;19.30;99.90;;;;;;4992978;28;20606;-75
2021/06/11 00:36:21;;;;;;;11.97;9.37;;;19.40;99.90;;;;;;5011847;28;20197;-75
2021/06/11 00:38:48;;;;;;;11.70;8.30;;;19.40;99.90;;;;;;4994208;28;20239;-75
2021/06/11 00:41:15;;;;;;;9.37;7.97;;;19.50;99.90;;;;;;4993675;28;20295;-76
2021/06/11 00:43:41;;;;;;;9.23;7.67;;;19.40;99.90;;;;;;4994491;28;20633;-76
2021/06/11 00:46:08;;;;;;;9.37;7.87;;;19.30;99.90;;;;;;5012144;28;20214;-77
2021/06/11 00:48:35;;;;;;;8.97;7.63;;;19.20;99.90;;;;;;4997955;28;20201;-77
2021/06/11 00:51:02;;;;;;;9.17;7.23;;;19.30;99.90;;;;;;4991495;28;21048;-77
2021/06/11 00:53:29;;;;;;;9.20;7.13;;;19.50;99.90;;;;;;4976995;28;20263;-77
2021/06/11 00:55:56;;;;;;;10.77;6.83;;;19.50;99.90;;;;;;4971206;28;20730;-76
2021/06/11 00:58:23;;;;;;;7.63;5.83;;;19.40;99.90;;;;;;4982682;28;20637;-76
2021/06/11 01:00:49;;;;;;;8.03;6.47;;;19.50;99.90;;;;;;4993566;28;20232;-76
2021/06/11 01:03:18;;;;;;;7.33;5.97;;;19.50;99.90;;;;;;4997378;28;20209;-76
2021/06/11 01:05:45;;;;;;;6.67;5.20;;;19.50;99.90;;;;;;4974290;28;20216;-76
2021/06/11 01:08:15;;;;;;;8.50;5.20;;;19.40;99.90;;;;;;5013565;28;20308;-77
2021/06/11 01:10:44;;;;;;;6.60;5.07;;;19.30;99.90;;;;;;4991479;28;20198;-76
2021/06/11 01:13:15;;;;;;;6.57;4.73;;;19.20;99.90;;;;;;4995007;28;20245;-76
2021/06/11 01:15:43;;;;;;;8.50;5.87;;;19.10;99.90;;;;;;4976927;28;20209;-76
2021/06/11 01:18:12;;;;;;;7.57;5.53;;;18.90;99.90;;;;;;4999903;28;20331;-76
2021/06/11 01:20:39;;;;;;;7.70;5.43;;;18.80;99.90;;;;;;4976659;28;20198;-75
2021/06/11 01:24:01;;;;;;;8.23;5.70;;;18.60;99.90;;;;;;5011997;28;20295;-76
2021/06/11 01:26:31;;;;;;;7.10;5.67;;;18.40;99.90;;;;;;4946970;28;20266;-76
2021/06/11 01:29:08;;;;;;;8.40;5.67;;;18.30;99.90;;;;;;4935377;28;20354;-76
2021/06/11 01:31:41;;;;;;;8.80;5.17;;;18.30;99.90;;;;;;4934427;29;20655;-76
2021/06/11 01:34:15;;;;;;;7.27;6.00;;;18.10;99.90;;;;;;4949541;28;20207;-77
2021/06/11 01:36:57;;;;;;;7.23;6.17;;;18.10;99.90;;;;;;4948434;28;20262;-79
2021/06/11 01:39:25;;;;;;;7.20;5.83;;;18.00;99.90;;;;;;4934114;28;20766;-77
2021/06/11 01:41:54;;;;;;;6.50;5.40;;;18.00;99.90;;;;;;4926659;29;20263;-77
2021/06/11 01:44:24;;;;;;;6.47;5.77;;;18.00;99.90;;;;;;4945208;29;20259;-77
2021/06/11 01:46:57;;;;;;;7.33;5.40;;;18.00;99.90;;;;;;4951111;28;20227;-77
2021/06/11 01:49:28;;;;;;;7.23;5.93;;;18.10;99.90;;;;;;4934144;28;20207;-77
2021/06/11 01:51:57;;;;;;;7.80;5.87;;;18.00;99.90;;;;;;4943026;29;20674;-77
2021/06/11 01:54:25;;;;;;;7.67;5.47;;;17.90;99.90;;;;;;4952137;28;20206;-77
2021/06/11 01:56:53;;;;;;;8.33;6.03;;;17.90;99.90;;;;;;4915582;29;20753;-78
2021/06/11 01:59:20;;;;;;;7.40;6.03;;;17.90;99.90;;;;;;4936783;28;20246;-77
2021/06/11 02:01:48;;;;;;;8.70;5.93;;;17.80;99.90;;;;;;5006801;28;20242;-77
2021/06/11 02:04:16;;;;;;;7.63;5.90;;;17.90;99.90;;;;;;5016077;28;20207;-77
2021/06/11 02:06:43;;;;;;;8.50;6.10;;;18.00;99.90;;;;;;5007602;28;20289;-77
2021/06/11 02:09:12;;;;;;;9.20;5.53;;;18.00;99.90;;;;;;4996213;28;20210;-77
2021/06/11 02:11:41;;;;;;;7.93;6.20;;;17.90;99.90;;;;;;5010319;28;20271;-77
2021/06/11 02:14:14;;;;;;;8.40;5.60;;;17.90;99.90;;;;;;5013714;28;20261;-76
2021/06/11 02:16:43;;;;;;;7.10;5.80;;;17.80;99.90;;;;;;5027718;28;20263;-77
2021/06/11 02:19:10;;;;;;;7.03;5.03;;;17.90;99.90;;;;;;5029975;28;20259;-78
2021/06/11 02:21:38;;;;;;;7.07;5.70;;;17.90;99.90;;;;;;5006345;28;20624;-77
2021/06/11 02:24:09;;;;;;;7.03;5.77;;;17.80;99.90;;;;;;5008478;28;20315;-77
2021/06/11 02:26:39;;;;;;;9.43;5.53;;;17.70;99.90;;;;;;4996109;28;20266;-77
2021/06/11 02:29:06;;;;;;;8.23;5.80;;;17.70;99.90;;;;;;5013210;28;20293;-77
2021/06/11 02:31:34;;;;;;;6.23;5.60;;;17.60;99.90;;;;;;5015231;28;20213;-77
2021/06/11 02:34:02;;;;;;;7.43;5.70;;;17.50;99.90;;;;;;5018384;28;20195;-76
2021/06/11 02:36:31;;;;;;;7.57;5.63;;;17.50;99.90;;;;;;5030174;28;20232;-77
2021/06/11 02:38:58;;;;;;;7.10;5.30;;;17.60;99.90;;;;;;5012521;28;20269;-76
2021/06/11 02:41:37;;;;;;;5.87;5.23;;;17.60;99.90;;;;;;4986581;28;20267;-75
2021/06/11 02:44:06;;;;;;;8.10;4.67;;;17.70;99.90;;;;;;5015875;28;20250;-75
2021/06/11 02:46:47;;;;;;;7.30;5.13;;;17.60;99.90;;;;;;4997029;28;20624;-77
2021/06/11 02:49:29;;;;;;;7.67;4.93;;;17.50;99.90;;;;;;5014351;28;20519;-76
2021/06/11 02:52:04;;;;;;;8.23;5.33;;;17.60;99.90;;;;;;5029652;28;20189;-76
2021/06/11 02:54:35;;;;;;;6.57;4.80;;;17.70;99.90;;;;;;5033735;28;20231;-75
2021/06/11 02:57:09;;;;;;;5.83;4.60;;;17.70;99.90;;;;;;5009613;28;20236;-76
2021/06/11 02:59:41;;;;;;;8.67;5.60;;;17.50;99.90;;;;;;5011058;28;20294;-76
2021/06/11 03:02:13;;;;;;;6.93;5.00;;;17.50;99.90;;;;;;5025163;28;20213;-75
2021/06/11 03:04:45;;;;;;;6.07;5.03;;;17.40;99.90;;;;;;5011346;28;20597;-77
2021/06/11 03:07:23;;;;;;;5.83;4.87;;;17.30;99.90;;;;;;5013638;28;20313;-76
2021/06/11 03:09:54;;;;;;;8.00;5.53;;;17.40;99.90;;;;;;5004583;28;20196;-76
2021/06/11 03:12:21;;;;;;;6.10;5.13;;;17.30;99.90;;;;;;5013420;28;20224;-76
2021/06/11 03:14:50;;;;;;;7.40;5.30;;;17.30;99.90;;;;;;4991341;28;20198;-77
2021/06/11 03:17:22;;;;;;;7.70;5.90;;;17.30;99.90;;;;;;5027652;28;20208;-77
2021/06/11 03:19:54;;;;;;;8.23;5.37;;;17.30;99.90;;;;;;4996745;28;20287;-77
2021/06/11 03:22:31;;;;;;;10.30;5.40;;;17.30;99.90;;;;;;5024524;28;20621;-77
2021/06/11 03:25:07;;;;;;;9.07;5.60;;;17.20;99.90;;;;;;5027511;28;20254;-76
2021/06/11 03:27:46;;;;;;;7.87;5.63;;;17.30;99.90;;;;;;5007543;28;20240;-77
2021/06/11 03:30:15;;;;;;;6.67;5.47;;;17.20;99.90;;;;;;5010299;28;20209;-76
2021/06/11 03:32:44;;;;;;;8.83;5.57;;;17.40;99.90;;;;;;5007092;28;20319;-77
2021/06/11 03:35:17;;;;;;;9.40;6.27;;;17.50;99.90;;;;;;5039857;28;20288;-78
2021/06/11 03:37:50;;;;;;;8.37;5.57;;;17.40;99.90;;;;;;5020919;28;20253;-78
2021/06/11 03:40:24;;;;;;;8.30;5.93;;;17.40;99.90;;;;;;5027838;28;20198;-78
2021/06/11 03:42:53;;;;;;;7.20;5.77;;;17.40;99.90;;;;;;5014121;28;20276;-78
2021/06/11 03:45:21;;;;;;;7.57;5.90;;;17.30;99.90;;;;;;5016456;28;20241;-77
2021/06/11 03:47:49;;;;;;;10.27;6.00;;;17.30;99.90;;;;;;5031514;28;20327;-77
2021/06/11 03:50:20;;;;;;;9.63;6.03;;;17.30;99.90;;;;;;5015444;28;20220;-76
2021/06/11 03:52:49;;;;;;;10.83;6.63;;;17.20;99.90;;;;;;5010417;28;20307;-77
2021/06/11 03:55:25;;;;;;;9.40;6.57;;;17.20;99.90;;;;;;5014490;28;20290;-78
2021/06/11 03:58:05;;;;;;;11.53;6.90;;;17.10;99.90;;;;;;5012181;28;20614;-77
2021/06/11 04:00:33;;;;;;;10.77;6.03;;;17.10;99.90;;;;;;5029050;28;20238;-77
2021/06/11 04:03:00;;;;;;;8.37;5.63;;;17.20;99.90;;;;;;5022096;28;20205;-78
2021/06/11 04:05:28;;;;;;;8.53;6.00;;;17.20;99.90;;;;;;4998843;28;20243;-78
2021/06/11 04:07:57;;;;;;;8.10;5.97;;;17.30;99.90;;;;;;5014784;28;20237;-78
2021/06/11 04:10:34;;;;;;;9.47;6.83;;;17.20;99.90;;;;;;5018314;28;20681;-77
2021/06/11 04:13:18;;;;;;;7.40;5.57;;;17.20;99.90;;;;;;5035833;28;20298;-78
2021/06/11 04:15:48;;;;;;;9.00;6.23;;;17.10;99.90;;;;;;5009826;28;20231;-77
2021/06/11 04:18:21;;;;;;;11.27;6.43;;;17.30;99.90;;;;;;5014661;28;20193;-77
2021/06/11 04:20:53;;;;;;;11.10;6.50;;;17.50;99.90;;;;;;5030862;28;20296;-77
2021/06/11 04:23:27;;;;;;;12.20;6.53;;;17.50;99.90;;;;;;5018328;28;20231;-78
2021/06/11 04:25:57;;;;;;;11.33;6.50;;;17.70;99.90;;;;;;5016372;28;20331;-77
2021/06/11 04:28:25;;;;;;;11.93;6.50;;;17.30;99.90;;;;;;5019912;28;20231;-77
2021/06/11 04:30:53;;;;;;;10.27;6.73;;;17.20;99.90;;;;;;5013583;28;20362;-77
2021/06/11 04:33:27;;;;;;;8.57;6.40;;;17.20;99.90;;;;;;4997701;28;20196;-78
2021/06/11 04:35:54;;;;;;;11.87;7.10;;;17.30;99.90;;;;;;5012865;28;20236;-78
2021/06/11 04:38:22;;;;;;;9.57;6.53;;;17.40;99.90;;;;;;5005313;28;20215;-78
2021/06/11 04:40:50;;;;;;;10.07;6.67;;;17.30;99.90;;;;;;5017776;28;20255;-77
2021/06/11 04:43:21;;;;;;;12.13;6.83;;;17.30;99.90;;;;;;5003198;28;20621;-77
2021/06/11 04:45:48;;;;;;;10.87;6.13;;;17.30;99.90;;;;;;4993698;28;20274;-77
2021/06/11 04:48:15;;;;;;;10.30;7.07;;;17.30;99.90;;;;;;5001785;28;20262;-77
2021/06/11 04:50:42;;;;;;;13.03;7.50;;;17.40;99.90;;;;;;5015447;28;20382;-77
2021/06/11 04:53:09;;;;;;;16.03;7.50;;;17.30;99.90;;;;;;5003149;28;20256;-77
2021/06/11 04:55:36;;;;;;;13.47;7.37;;;17.30;99.90;;;;;;5016375;28;20547;-77
2021/06/11 04:58:03;;;;;;;12.17;7.13;;;17.40;99.90;;;;;;4997835;28;20232;-77
2021/06/11 05:00:30;;;;;;;12.90;7.53;;;17.40;99.90;;;;;;4997053;28;20526;-76
2021/06/11 05:02:57;;;;;;;10.60;7.17;;;17.60;99.90;;;;;;5003681;28;20193;-77
2021/06/11 05:05:24;;;;;;;14.17;7.57;;;17.60;99.90;;;;;;5017852;28;20585;-78
2021/06/11 05:07:51;;;;;;;17.47;8.27;;;17.60;99.90;;;;;;5016621;28;20270;-76
2021/06/11 05:10:18;;;;;;;13.70;7.27;;;17.60;99.90;;;;;;4989161;28;20568;-77
2021/06/11 05:12:45;;;;;;;12.67;7.27;;;17.60;99.90;;;;;;4982475;28;20204;-78
2021/06/11 05:15:13;;;;;;;15.60;8.80;;;17.50;99.90;;;;;;4996365;28;20209;-78
2021/06/11 05:17:39;;;;;;;12.70;8.07;;;17.50;99.90;;;;;;4977268;28;20205;-77
2021/06/11 05:20:07;;;;;;;15.07;8.43;;;17.30;99.90;;;;;;5014138;28;20262;-77
2021/06/11 05:22:34;;;;;;;16.17;8.77;;;17.50;99.90;;;;;;5003701;28;20245;-77
2021/06/11 05:25:02;;;;;;;16.70;8.53;;;17.60;99.90;;;;;;4998237;28;20212;-77
2021/06/11 05:27:28;;;;;;;18.03;8.60;;;17.80;99.90;;;;;;5011165;28;20378;-76
2021/06/11 05:29:55;;;;;;;18.57;9.90;;;17.70;99.90;;;;;;5017126;28;20206;-76
2021/06/11 05:32:22;;;;;;;14.60;9.00;;;17.70;99.90;;;;;;4991196;28;20274;-78
2021/06/11 05:34:49;;;;;;;14.23;8.97;;;17.60;99.90;;;;;;5010515;28;20312;-78
2021/06/11 05:37:16;;;;;;;19.70;10.50;;;17.60;99.90;;;;;;4996291;28;20198;-78
2021/06/11 05:39:44;;;;;;;15.93;10.40;;;17.70;99.90;;;;;;4998450;28;20208;-78
2021/06/11 05:42:12;;;;;;;19.53;10.90;;;17.60;99.90;;;;;;4994937;28;20235;-77
2021/06/11 05:44:39;;;;;;;23.37;12.73;;;17.80;99.90;;;;;;5012497;28;20284;-78
2021/06/11 05:47:06;;;;;;;20.30;11.63;;;17.70;99.90;;;;;;5012559;28;20219;-79
2021/06/11 05:49:33;;;;;;;19.93;11.43;;;17.60;99.90;;;;;;4991248;28;20214;-78
2021/06/11 05:52:00;;;;;;;20.10;11.97;;;17.60;99.90;;;;;;5017479;28;20292;-79
2021/06/11 05:54:27;;;;;;;20.63;11.40;;;17.60;99.90;;;;;;5013108;28;20228;-79
2021/06/11 05:56:57;;;;;;;20.87;11.17;;;17.60;99.90;;;;;;4986598;28;20205;-79
2021/06/11 05:59:23;;;;;;;21.60;11.33;;;17.50;99.90;;;;;;5012722;28;20209;-78
2021/06/11 06:01:50;;;;;;;19.23;11.50;;;17.80;99.90;;;;;;5003552;28;20291;-78
2021/06/11 06:04:17;;;;;;;17.40;11.03;;;17.60;99.90;;;;;;5006431;28;20206;-79
2021/06/11 06:06:44;;;;;;;18.67;11.57;;;17.70;99.90;;;;;;5008448;28;20193;-79
2021/06/11 06:09:11;;;;;;;23.40;11.77;;;17.80;99.90;;;;;;5012511;28;20240;-79
2021/06/11 06:11:37;;;;;;;20.30;12.50;;;17.90;99.90;;;;;;5012792;28;20241;-78
2021/06/11 06:14:05;;;;;;;25.13;11.80;;;18.00;99.90;;;;;;5010889;28;20259;-79
2021/06/11 06:16:31;;;;;;;17.50;11.17;;;18.00;99.90;;;;;;5011760;28;20201;-79
2021/06/11 06:18:58;;;;;;;17.40;11.60;;;18.10;99.90;;;;;;5012553;28;20311;-79
2021/06/11 06:21:25;;;;;;;19.27;11.87;;;18.30;99.90;;;;;;5011753;28;20648;-79
2021/06/11 06:23:52;;;;;;;18.43;11.77;;;18.40;99.90;;;;;;5013055;28;20205;-79
2021/06/11 06:26:19;;;;;;;18.97;11.83;;;18.40;99.90;;;;;;5008610;28;21822;-80
2021/06/11 06:28:46;;;;;;;23.17;12.43;;;18.40;99.90;;;;;;5029816;28;20211;-79
2021/06/11 06:31:13;;;;;;;18.80;11.67;;;18.30;99.90;;;;;;4998645;28;20224;-79
2021/06/11 06:33:40;;;;;;;24.23;12.23;;;18.60;99.90;;;;;;5006269;28;20297;-80
2021/06/11 06:36:08;;;;;;;17.27;11.87;;;18.70;99.90;;;;;;4990990;28;20268;-79
2021/06/11 06:38:36;;;;;;;19.47;12.17;;;18.70;99.90;;;;;;4988463;28;20235;-79
2021/06/11 06:41:05;;;;;;;16.43;11.53;;;18.90;99.90;;;;;;5011952;28;20198;-80
2021/06/11 06:43:32;;;;;;;18.67;11.63;;;19.10;99.90;;;;;;4997233;28;20575;-79
2021/06/11 06:46:00;;;;;;;16.00;10.87;;;19.00;99.90;;;;;;5008298;28;20201;-78
2021/06/11 06:48:27;;;;;;;18.07;11.67;;;19.30;99.90;;;;;;5006596;28;20224;-78
2021/06/11 06:50:58;;;;;;;15.30;10.53;;;19.30;99.90;;;;;;5014451;28;20884;-79
2021/06/11 06:53:25;;;;;;;17.77;11.30;;;19.50;99.90;;;;;;5012795;28;20239;-79
2021/06/11 06:55:52;;;;;;;16.63;10.67;;;19.60;99.90;;;;;;5012409;28;20254;-78
2021/06/11 06:58:19;;;;;;;16.13;11.23;;;19.80;99.90;;;;;;5014201;28;20220;-79
2021/06/11 07:00:46;;;;;;;17.00;11.03;;;20.00;99.90;;;;;;5030907;28;20786;-79
2021/06/11 07:03:13;;;;;;;15.80;9.40;;;20.20;99.90;;;;;;5003382;28;20251;-79
2021/06/11 07:05:39;;;;;;;15.13;11.60;;;20.40;99.90;;;;;;5030106;28;20330;-79
2021/06/11 07:08:06;;;;;;;13.40;9.53;;;20.70;99.90;;;;;;5013302;28;20224;-78
2021/06/11 07:10:33;;;;;;;15.63;9.87;;;20.70;99.90;;;;;;5020192;28;20577;-79
2021/06/11 07:13:00;;;;;;;16.27;10.90;;;20.80;99.90;;;;;;5019999;28;20201;-79
2021/06/11 07:15:27;;;;;;;16.77;10.23;;;20.80;99.90;;;;;;5010834;28;20575;-79
2021/06/11 07:17:57;;;;;;;15.70;10.10;;;20.90;99.90;;;;;;4979948;28;20285;-79
2021/06/11 07:20:24;;;;;;;14.37;9.70;;;21.20;99.90;;;;;;5014399;28;20253;-79
2021/06/11 07:22:51;;;;;;;15.77;9.87;;;21.50;99.90;;;;;;4998485;28;20295;-79
2021/06/11 07:25:18;;;;;;;13.27;9.80;;;21.70;99.90;;;;;;5018419;28;20231;-78
2021/06/11 07:27:45;;;;;;;13.33;9.20;;;21.90;99.90;;;;;;5015203;28;20591;-78
2021/06/11 07:30:13;;;;;;;11.97;8.83;;;22.10;99.90;;;;;;4996620;28;20207;-80
2021/06/11 07:32:42;;;;;;;13.07;9.40;;;22.30;99.90;;;;;;4978672;28;20965;-79
2021/06/11 07:35:14;;;;;;;14.03;8.97;;;22.80;99.90;;;;;;5018064;28;20197;-79
2021/06/11 07:37:42;;;;;;;12.93;8.73;;;22.70;99.90;;;;;;4998709;28;20201;-78
2021/06/11 07:40:11;;;;;;;14.10;8.87;;;23.30;99.90;;;;;;5005173;28;20224;-78
2021/06/11 07:42:38;;;;;;;14.47;8.20;;;23.60;99.90;;;;;;4982006;28;20245;-78
2021/06/11 07:45:06;;;;;;;11.07;8.30;;;24.70;99.90;;;;;;5018377;28;20287;-79
2021/06/11 07:47:34;;;;;;;10.10;7.60;;;25.00;93.90;;;;;;5002460;28;20194;-79
2021/06/11 07:50:03;;;;;;;15.47;8.67;;;24.90;95.70;;;;;;4996741;28;20753;-79
2021/06/11 07:52:36;;;;;;;9.57;7.27;;;24.10;99.90;;;;;;5016728;28;20192;-80
2021/06/11 07:55:05;;;;;;;18.23;9.50;;;25.30;99.90;;;;;;5016615;28;20201;-79
2021/06/11 07:57:32;;;;;;;13.07;8.83;;;25.30;81.40;;;;;;4999784;28;20189;-79
2021/06/11 07:59:59;;;;;;;13.63;8.10;;;24.80;95.00;;;;;;5020226;28;20224;-80
2021/06/11 08:02:26;;;;;;;13.80;9.67;;;24.40;99.90;;;;;;5020752;28;20220;-79
2021/06/11 08:04:54;;;;;;;12.03;7.50;;;24.30;99.90;;;;;;5013712;28;20686;-79
2021/06/11 08:07:21;;;;;;;15.10;9.77;;;25.90;85.70;;;;;;5034406;28;20209;-79
2021/06/11 08:09:48;;;;;;;14.23;9.07;;;25.10;84.00;;;;;;5035177;28;20258;-80
2021/06/11 08:12:15;;;;;;;13.20;8.70;;;25.50;92.40;;;;;;5035401;28;20235;-79
2021/06/11 08:14:51;;;;;;;16.70;9.80;;;25.90;1.00;;;;;;5024205;28;20200;-80
2021/06/11 08:17:18;;;;;;;19.87;11.00;;;25.80;1.00;;;;;;5012435;28;20228;-80
2021/06/11 08:19:45;;;;;;;16.50;9.97;;;25.50;99.90;;;;;;5031295;28;20573;-80
2021/06/11 08:22:12;;;;;;;14.43;10.23;;;25.10;47.80;;;;;;5021905;28;20726;-80
2021/06/11 08:24:39;;;;;;;16.27;10.20;;;25.30;1.00;;;;;;4998200;28;20272;-79
2021/06/11 08:27:06;;;;;;;17.87;9.67;;;25.20;99.90;;;;;;4999434;28;20304;-79
2021/06/11 08:29:33;;;;;;;16.23;10.47;;;27.10;1.00;;;;;;5037664;28;20220;-80
2021/06/11 08:32:00;;;;;;;16.17;10.23;;;27.00;19.10;;;;;;5035658;28;20248;-79
2021/06/11 08:34:29;;;;;;;21.00;11.33;;;26.60;1.00;;;;;;5010390;28;20227;-81
2021/06/11 08:37:06;;;;;;;17.27;10.20;;;25.80;1.00;;;;;;5018805;28;20211;-79
2021/06/11 08:39:34;;;;;;;18.53;10.00;;;26.00;1.00;;;;;;5023467;28;20203;-80
2021/06/11 08:42:01;;;;;;;19.90;9.43;;;26.60;1.00;;;;;;5015413;28;20204;-79
2021/06/11 08:44:28;;;;;;;19.10;10.57;;;26.80;99.90;;;;;;5015618;28;20236;-82
2021/06/11 08:46:55;;;;;;;16.80;10.20;;;26.50;1.00;;;;;;5012224;28;20965;-80
2021/06/11 08:49:24;;;;;;;19.33;11.13;;;27.20;99.90;;;;;;5031552;28;20217;-80
2021/06/11 08:51:55;;;;;;;18.57;10.83;;;26.60;1.00;;;;;;5017332;28;20706;-79
2021/06/11 08:54:23;;;;;;;19.10;10.83;;;26.40;1.00;;;;;;5011911;28;20200;-79
2021/06/11 08:56:50;;;;;;;17.47;11.40;;;26.60;5.30;;;;;;5013619;28;20601;-79
2021/06/11 08:59:20;;;;;;;15.53;10.17;;;26.00;1.00;;;;;;5015078;28;20211;-79
2021/06/11 09:01:48;;;;;;;15.17;9.03;;;25.80;1.00;;;;;;5012806;28;20200;-79
2021/06/11 09:04:15;;;;;;;15.03;9.40;;;27.90;18.20;;;;;;4997437;28;20208;-79
2021/06/11 09:06:42;;;;;;;15.83;9.73;;;27.70;99.90;;;;;;4997838;28;20209;-79
2021/06/11 09:09:10;;;;;;;18.37;9.20;;;26.90;1.00;;;;;;5017311;28;20261;-79
2021/06/11 09:11:37;;;;;;;16.30;8.13;;;27.70;1.00;;;;;;4981683;28;20232;-80
2021/06/11 09:14:05;;;;;;;19.00;10.40;;;27.70;1.00;;;;;;4996483;28;20238;-80
2021/06/11 09:16:52;;;;;;;19.13;9.70;;;27.50;1.00;;;;;;5023954;28;20250;-80
2021/06/11 09:19:19;;;;;;;16.27;10.37;;;26.90;99.90;;;;;;5008360;28;20216;-79
2021/06/11 09:21:50;;;;;;;16.03;9.37;;;27.00;1.00;;;;;;5038237;28;20208;-79
2021/06/11 09:24:28;;;;;;;15.63;8.87;;;27.00;37.80;;;;;;4988090;28;20208;-80
2021/06/11 09:26:57;;;;;;;14.33;9.63;;;26.60;1.00;;;;;;5012071;28;20739;-80
2021/06/11 09:29:30;;;;;;;17.83;8.87;;;26.00;17.60;;;;;;5015033;28;20216;-81
2021/06/11 09:32:18;;;;;;;16.58;9.50;;;26.20;1.00;;;;;;5023635;28;20243;-79
2021/06/11 09:34:49;;;;;;;12.47;7.10;;;25.90;99.90;;;;;;5036611;28;20230;-79
2021/06/11 09:37:20;;;;;;;12.53;6.80;;;26.20;1.00;;;;;;5026152;28;20205;-79
2021/06/11 09:39:55;;;;;;;13.13;7.97;;;27.20;99.90;;;;;;5016194;28;21144;-79
2021/06/11 09:42:25;;;;;;;19.07;9.80;;;26.60;99.90;;;;;;5027307;28;20280;-79
2021/06/11 09:44:58;;;;;;;14.00;9.17;;;26.60;99.90;;;;;;5018755;28;20611;-79
2021/06/11 09:47:34;;;;;;;10.80;7.60;;;26.80;99.90;;;;;;5016032;28;20221;-80
2021/06/11 09:50:05;;;;;;;13.33;8.43;;;27.00;32.10;;;;;;5015950;28;20228;-79
2021/06/11 09:52:36;;;;;;;13.23;8.88;;;27.20;1.00;;;;;;5016650;28;20260;-79
2021/06/11 09:55:05;;;;;;;13.13;8.80;;;26.80;1.00;;;;;;5016222;28;20239;-79
2021/06/11 09:57:34;;;;;;;12.70;8.57;;;26.50;1.00;;;;;;4998904;28;20211;-79
2021/06/11 10:00:02;;;;;;;10.80;7.27;;;26.20;1.00;;;;;;5005280;28;20199;-80
2021/06/11 10:02:31;;;;;;;10.70;6.53;;;26.60;1.00;;;;;;5007878;28;20220;-80
2021/06/11 10:05:00;;;;;;;11.90;7.07;;;27.30;1.00;;;;;;5017637;28;20201;-80
2021/06/11 10:07:27;;;;;;;10.13;6.10;;;26.50;1.00;;;;;;5033824;28;20617;-80
2021/06/11 10:09:56;;;;;;;9.57;6.87;;;27.30;1.00;;;;;;5016241;28;20236;-79
2021/06/11 10:12:23;;;;;;;8.87;6.33;;;27.00;1.00;;;;;;5024611;28;20211;-79
2021/06/11 10:14:50;;;;;;;13.23;7.70;;;26.60;99.90;;;;;;5025373;28;20249;-79
2021/06/11 10:17:17;;;;;;;10.10;6.93;;;26.30;50.20;;;;;;5002367;28;20210;-80
2021/06/11 10:19:48;;;;;;;10.57;7.23;;;26.60;1.00;;;;;;5011514;28;20204;-79
2021/06/11 10:22:15;;;;;;;11.17;6.50;;;26.50;20.10;;;;;;5016693;28;20234;-80
2021/06/11 10:24:42;;;;;;;8.23;5.90;;;26.40;1.00;;;;;;5013533;28;20199;-80
2021/06/11 10:27:09;;;;;;;9.27;6.53;;;26.80;99.90;;;;;;5023598;28;20237;-80
2021/06/11 10:29:39;;;;;;;8.40;6.50;;;26.50;1.00;;;;;;5006144;28;20742;-80
2021/06/11 10:32:06;;;;;;;9.50;7.00;;;25.60;1.00;;;;;;5003455;28;20251;-80
2021/06/11 10:34:53;;;;;;;9.57;6.33;;;25.40;99.90;;;;;;5016801;28;20191;-80
2021/06/11 10:37:36;;;;;;;10.30;6.43;;;26.20;99.90;;;;;;5014303;28;20569;-80
2021/06/11 10:40:34;;;;;;;11.50;5.47;;;27.10;99.90;;;;;;5016270;28;20215;-81
2021/06/11 10:43:19;;;;;;;8.17;5.90;;;27.60;99.90;;;;;;5005836;28;20651;-80
2021/06/11 10:45:47;;;;;;;8.23;5.80;;;27.00;1.00;;;;;;5013266;28;20501;-80
2021/06/11 10:48:13;;;;;;;9.33;7.37;;;26.50;1.00;;;;;;5038368;28;20215;-80
2021/06/11 10:50:40;;;;;;;9.97;6.73;;;26.90;1.00;;;;;;5002896;28;20217;-79
2021/06/11 10:53:31;;;;;;;7.30;6.07;;;26.90;1.00;;;;;;5003416;28;20207;-79
2021/06/11 10:56:13;;;;;;;8.57;6.00;;;27.40;1.00;;;;;;5033752;28;20203;-80
2021/06/11 10:58:45;;;;;;;9.73;6.43;;;26.70;62.50;;;;;;5011291;28;20249;-80
2021/06/11 11:01:29;;;;;;;7.37;5.60;;;26.20;1.00;;;;;;5019076;28;20227;-80
2021/06/11 11:04:28;;;;;;;7.73;5.60;;;27.20;1.00;;;;;;5023737;28;20214;-79
2021/06/11 11:07:23;;;;;;;7.03;5.07;;;27.60;99.90;;;;;;5017137;28;20631;-80
2021/06/11 11:09:52;;;;;;;7.30;5.60;;;27.50;1.00;;;;;;5017748;28;20270;-80
2021/06/11 11:12:19;;;;;;;9.60;5.00;;;27.40;99.90;;;;;;5003508;28;20632;-80
2021/06/11 11:14:47;;;;;;;6.27;4.67;;;28.10;1.00;;;;;;5017781;28;20646;-80
2021/06/11 11:17:15;;;;;;;5.63;4.40;;;28.10;1.00;;;;;;5014587;28;20687;-80
2021/06/11 11:19:53;;;;;;;4.10;3.37;;;29.00;1.00;;;;;;5019745;28;20246;-79
2021/06/11 11:22:37;;;;;;;5.67;4.70;;;29.80;1.00;;;;;;5016137;28;20287;-79
2021/06/11 11:25:06;;;;;;;4.53;3.70;;;29.60;1.00;;;;;;5000475;28;20208;-78
2021/06/11 11:27:34;;;;;;;7.30;4.43;;;29.20;1.00;;;;;;5024405;28;20350;-79
2021/06/11 11:30:03;;;;;;;6.70;4.23;;;28.70;1.00;;;;;;5032834;28;20213;-79
2021/06/11 11:32:31;;;;;;;4.60;3.50;;;29.50;1.00;;;;;;5036026;28;20243;-79
2021/06/11 11:34:57;;;;;;;5.03;3.37;;;29.50;1.00;;;;;;5015613;28;20340;-80
2021/06/11 11:37:24;;;;;;;4.70;3.30;;;29.20;1.00;;;;;;5015713;28;20228;-80
2021/06/11 11:39:51;;;;;;;5.10;3.55;;;28.90;1.00;;;;;;5011898;28;20266;-79
2021/06/11 11:42:19;;;;;;;7.65;6.45;;;28.60;1.00;;;;;;5001778;28;20201;-80
2021/06/11 11:44:46;;;;;;;6.47;5.03;;;28.70;1.00;;;;;;4999439;28;20696;-80
2021/06/11 11:47:12;;;;;;;9.63;6.45;;;28.70;1.00;;;;;;5000624;28;20268;-80
2021/06/11 11:49:40;;;;;;;5.90;4.30;;;29.20;1.00;;;;;;4999510;28;20615;-80
2021/06/11 11:52:27;;;;;;;8.73;4.33;;;30.20;1.00;;;;;;5006193;28;20196;-80
2021/06/11 11:54:53;;;;;;;5.23;3.73;;;29.70;1.00;;;;;;5000948;28;20605;-80
2021/06/11 11:57:20;;;;;;;3.50;2.93;;;30.80;99.90;;;;;;5002582;28;20200;-80
2021/06/11 11:59:47;;;;;;;5.27;3.97;;;31.40;99.90;;;;;;4988163;28;20207;-80
2021/06/11 12:02:14;;;;;;;6.07;3.33;;;30.60;99.90;;;;;;5007537;28;20721;-79
2021/06/11 12:04:41;;;;;;;6.73;4.10;;;29.30;1.00;;;;;;5024011;28;20197;-81
2021/06/11 12:07:08;;;;;;;5.70;3.85;;;29.40;1.00;;;;;;5010496;28;20266;-79
2021/06/11 12:09:35;;;;;;;6.20;4.32;;;29.50;1.00;;;;;;5017728;28;20239;-79
2021/06/11 12:12:05;;;;;;;5.30;3.83;;;29.10;1.00;;;;;;5019441;28;20208;-80
2021/06/11 12:14:32;;;;;;;6.30;3.95;;;28.40;1.00;;;;;;5021498;28;20197;-79
2021/06/11 12:17:00;;;;;;;5.28;3.50;;;28.90;1.00;;;;;;5022067;28;20200;-79
2021/06/11 12:19:27;;;;;;;6.50;4.70;;;28.70;1.00;;;;;;4996141;28;20236;-79
2021/06/11 12:21:54;;;;;;;11.38;8.10;;;27.80;99.90;;;;;;5015715;28;20216;-80
2021/06/11 12:24:21;;;;;;;12.48;7.47;;;27.90;1.00;;;;;;5001905;28;20264;-80
2021/06/11 12:26:48;;;;;;;7.82;4.97;;;27.80;1.00;;;;;;5004372;28;20557;-80
2021/06/11 12:29:18;;;;;;;9.52;6.63;;;27.30;8.70;;;;;;5012083;28;20225;-80
2021/06/11 12:31:46;;;;;;;13.10;8.63;;;27.60;1.00;;;;;;5010336;28;20295;-79
2021/06/11 12:34:14;;;;;;;16.67;9.80;;;27.50;99.90;;;;;;5008974;28;20249;-79
2021/06/11 12:36:42;;;;;;;17.47;11.30;;;27.20;1.00;;;;;;5011267;28;20197;-79
2021/06/11 12:39:09;;;;;;;17.47;11.83;;;27.00;1.00;;;;;;5015347;28;20209;-79
2021/06/11 12:41:38;;;;;;;18.33;12.20;;;27.00;99.90;;;;;;5012454;28;20317;-79
2021/06/11 12:44:18;;;;;;;20.63;13.50;;;26.90;99.90;;;;;;5004436;28;20224;-79
2021/06/11 12:46:50;;;;;;;17.03;12.40;;;27.00;1.00;;;;;;5000295;28;20201;-80
2021/06/11 12:49:20;;;;;;;18.97;13.67;;;28.00;99.90;;;;;;5014732;28;20664;-79
2021/06/11 12:51:48;;;;;;;20.63;14.20;;;28.70;1.00;;;;;;5011804;28;20271;-80
2021/06/11 12:54:15;;;;;;;18.80;13.57;;;28.90;1.00;;;;;;5011229;28;20591;-77